Neptune Beach, Florida
Current Conditions -  °F | °C
As of 11:52 PM on Monday 20 Oct 2014 (Local Time) from KNRB Reporting Station
Broken Clouds Broken Clouds  
Wind Chill: 72°   Ceiling: 25000
Heat Index: 72°   Visibility: 10mi
Dew Point: 67°   Wind: 3mph
Humidity: 84%   Direction: 220°SW
Pressure: 29.98"   Gusts: NA
Location:  30.32°N, 81.41°W
Report Text: KNRB 210352Z 22003KT 10SM BKN250 22/19 A2998 RMK AO2 SLP153 T02220194
Loading
Personal Weather Stations






























Interactive Weather Map
Tropical Storm Tracking
New forecast layout! Learn more

10-Day Weather Forecast

Advertisements
Track Severe Weather on mobile